createdAt,value
2022-11-29T00:01:40.394Z,25.83
2022-11-29T00:04:09.014Z,26.93
2022-11-29T00:06:38.995Z,23.57
2022-11-29T00:09:09.076Z,24.90
2022-11-29T00:11:55.396Z,24.10
2022-11-29T00:14:24.060Z,23.07
2022-11-29T00:16:53.232Z,26.43
2022-11-29T00:19:24.228Z,23.70
2022-11-29T00:21:54.218Z,23.63
2022-11-29T00:24:23.030Z,25.00
2022-11-29T00:26:53.589Z,22.10
2022-11-29T00:29:22.200Z,24.77
2022-11-29T00:31:50.754Z,24.53
2022-11-29T00:34:19.359Z,25.40
2022-11-29T00:36:47.885Z,25.90
2022-11-29T00:39:17.817Z,24.80
2022-11-29T00:41:47.313Z,25.00
2022-11-29T00:44:20.083Z,23.90
2022-11-29T00:46:49.324Z,25.87
2022-11-29T00:49:17.980Z,22.93
2022-11-29T00:51:46.551Z,23.80
2022-11-29T00:54:15.122Z,25.13
2022-11-29T00:56:45.167Z,25.30
2022-11-29T00:59:13.789Z,25.20
2022-11-29T01:01:42.442Z,24.23
2022-11-29T01:04:14.853Z,24.07
2022-11-29T01:06:47.117Z,24.67
2022-11-29T01:09:15.739Z,24.13
2022-11-29T01:11:50.184Z,25.33
2022-11-29T01:14:18.797Z,24.80
2022-11-29T01:16:49.244Z,25.50
2022-11-29T01:19:17.880Z,25.03
2022-11-29T01:21:46.444Z,25.23
2022-11-29T01:24:14.977Z,24.37
2022-11-29T01:26:44.883Z,25.00
2022-11-29T01:29:13.534Z,24.27
2022-11-29T01:31:42.213Z,23.60
2022-11-29T01:34:11.261Z,24.70
2022-11-29T01:36:39.884Z,24.27
2022-11-29T01:39:08.585Z,25.90
2022-11-29T01:41:38.153Z,24.80
2022-11-29T01:44:29.253Z,24.73
2022-11-29T01:46:57.821Z,24.30
2022-11-29T01:49:29.604Z,25.80
2022-11-29T01:52:00.993Z,25.00
2022-11-29T01:54:29.872Z,24.20
2022-11-29T01:56:58.638Z,25.73
2022-11-29T01:59:29.464Z,24.27
2022-11-29T02:01:58.352Z,24.60
2022-11-29T02:04:34.270Z,24.07
2022-11-29T02:07:05.198Z,25.60
2022-11-29T02:09:33.742Z,25.97
2022-11-29T02:12:10.244Z,24.87
2022-11-29T02:15:00.115Z,24.03
2022-11-29T02:17:31.401Z,24.30
2022-11-29T02:20:26.602Z,23.50
2022-11-29T02:22:57.432Z,24.43
2022-11-29T02:25:43.338Z,25.60
2022-11-29T02:28:43.059Z,24.63
2022-11-29T02:31:45.313Z,25.47
2022-11-29T02:34:44.951Z,25.40
2022-11-29T02:37:33.333Z,26.20
2022-11-29T02:40:15.431Z,25.07
2022-11-29T02:43:13.625Z,26.30
2022-11-29T02:45:49.469Z,23.87
2022-11-29T02:48:34.351Z,24.70
2022-11-29T02:51:08.056Z,25.20
2022-11-29T02:53:38.413Z,25.13
2022-11-29T02:56:10.302Z,24.20
2022-11-29T02:58:43.030Z,25.77
2022-11-29T03:01:14.205Z,25.57
2022-11-29T03:03:45.026Z,25.30
2022-11-29T03:06:19.433Z,25.30
2022-11-29T03:08:51.266Z,24.50
2022-11-29T03:11:23.131Z,25.97
2022-11-29T03:13:54.916Z,26.07
2022-11-29T03:16:30.655Z,28.00
2022-11-29T03:19:13.536Z,24.60
2022-11-29T03:21:47.425Z,25.00
2022-11-29T03:24:16.927Z,25.83
2022-11-29T03:26:50.027Z,26.40
2022-11-29T03:29:22.765Z,27.30
2022-11-29T03:31:54.209Z,25.00
2022-11-29T03:34:25.461Z,26.90
2022-11-29T03:36:59.164Z,25.57
2022-11-29T03:39:31.496Z,24.23
2022-11-29T03:42:01.340Z,28.17
2022-11-29T03:44:32.041Z,24.70
2022-11-29T03:47:01.888Z,26.90
2022-11-29T03:49:32.582Z,26.27
2022-11-29T03:52:06.887Z,25.20
2022-11-29T03:54:39.764Z,27.70
2022-11-29T03:57:12.447Z,28.03
2022-11-29T03:59:48.857Z,26.63
2022-11-29T04:02:43.655Z,25.20
2022-11-29T04:05:37.598Z,26.80
2022-11-29T04:08:28.906Z,27.23
2022-11-29T04:11:24.650Z,25.57
2022-11-29T04:13:59.417Z,25.80
2022-11-29T04:16:56.676Z,26.93
2022-11-29T04:19:52.729Z,24.73
2022-11-29T04:22:35.597Z,26.57
2022-11-29T04:25:30.961Z,27.87
2022-11-29T04:28:21.782Z,25.93
2022-11-29T04:30:55.132Z,25.47
2022-11-29T04:33:40.761Z,24.93
2022-11-29T04:36:17.692Z,27.43
2022-11-29T04:38:56.678Z,25.60
2022-11-29T04:41:53.422Z,26.27
2022-11-29T04:44:29.066Z,26.33
2022-11-29T04:47:17.566Z,25.47
2022-11-29T04:50:04.721Z,26.60
2022-11-29T04:52:44.122Z,25.90
2022-11-29T04:55:27.618Z,26.90
2022-11-29T04:58:03.000Z,26.43
2022-11-29T05:00:32.489Z,27.80
2022-11-29T05:03:02.516Z,26.30
2022-11-29T05:05:34.349Z,25.47
2022-11-29T05:08:17.894Z,23.40
2022-11-29T05:10:50.218Z,25.77
2022-11-29T05:13:22.774Z,26.60
2022-11-29T05:16:01.615Z,26.87
2022-11-29T05:18:45.208Z,27.00
2022-11-29T05:21:15.713Z,30.80
2022-11-29T05:23:49.579Z,29.07
2022-11-29T05:26:20.934Z,29.00
2022-11-29T05:28:54.980Z,26.43
2022-11-29T05:31:30.623Z,27.63
2022-11-29T05:34:21.323Z,26.90
2022-11-29T05:36:52.659Z,24.93
2022-11-29T05:39:31.167Z,28.10
2022-11-29T05:42:12.173Z,26.67
2022-11-29T05:44:45.353Z,25.83
2022-11-29T05:47:15.962Z,27.87
2022-11-29T05:49:50.402Z,25.37
2022-11-29T05:52:30.066Z,27.50
2022-11-29T05:55:05.805Z,25.80
2022-11-29T05:57:38.050Z,24.00
2022-11-29T06:00:10.721Z,26.50
2022-11-29T06:02:53.101Z,26.30
2022-11-29T06:05:25.808Z,24.13
2022-11-29T06:07:57.239Z,25.37
2022-11-29T06:10:27.834Z,24.93
2022-11-29T06:13:11.378Z,26.20
2022-11-29T06:16:03.557Z,26.57
2022-11-29T06:18:39.914Z,26.13
2022-11-29T06:21:16.945Z,24.70
2022-11-29T06:24:07.903Z,24.30
2022-11-29T06:26:51.961Z,25.17
2022-11-29T06:29:25.265Z,26.70
2022-11-29T06:31:57.255Z,28.90
2022-11-29T06:34:30.919Z,27.53
2022-11-29T06:37:01.481Z,25.23
2022-11-29T06:39:31.368Z,24.67
2022-11-29T06:41:59.889Z,24.40
2022-11-29T06:44:32.047Z,26.10
2022-11-29T06:47:04.828Z,25.77
2022-11-29T06:49:37.840Z,27.20
2022-11-29T06:52:12.674Z,25.10
2022-11-29T06:55:02.967Z,24.80
2022-11-29T06:57:36.749Z,24.87
2022-11-29T07:00:11.677Z,25.87
2022-11-29T07:02:50.340Z,23.37
2022-11-29T07:05:26.582Z,22.77
2022-11-29T07:08:01.864Z,24.90
2022-11-29T07:10:31.440Z,24.57
2022-11-29T07:13:02.053Z,25.47
2022-11-29T07:15:31.353Z,26.40
2022-11-29T07:18:18.683Z,26.23
2022-11-29T07:20:52.992Z,24.30
2022-11-29T07:23:25.875Z,25.10
2022-11-29T07:26:01.051Z,24.50
2022-11-29T07:28:39.604Z,24.87
2022-11-29T07:31:10.531Z,23.70
2022-11-29T07:33:44.769Z,23.90
2022-11-29T07:36:15.246Z,27.67
2022-11-29T07:38:51.758Z,28.13
2022-11-29T07:41:22.164Z,23.40
2022-11-29T07:43:53.799Z,24.23
2022-11-29T07:46:25.558Z,27.23
2022-11-29T07:48:56.250Z,24.50
2022-11-29T07:51:24.829Z,26.80
2022-11-29T07:53:53.919Z,25.03
2022-11-29T07:56:22.502Z,24.67
2022-11-29T07:58:51.306Z,24.67
2022-11-29T08:01:20.004Z,23.87
2022-11-29T08:03:48.679Z,23.63
2022-11-29T08:06:24.053Z,23.90
2022-11-29T08:08:52.718Z,25.37
2022-11-29T08:11:21.302Z,24.50
2022-11-29T08:13:49.889Z,25.90
2022-11-29T08:16:18.942Z,24.60
2022-11-29T08:18:47.494Z,24.27
2022-11-29T08:21:19.692Z,22.17
2022-11-29T08:23:48.387Z,23.53
2022-11-29T08:26:17.072Z,24.20
2022-11-29T08:28:45.744Z,23.37
2022-11-29T08:31:16.489Z,23.53
2022-11-29T08:33:49.156Z,24.63
2022-11-29T08:36:20.167Z,24.67
2022-11-29T08:38:48.706Z,23.80
2022-11-29T08:41:17.810Z,23.00
2022-11-29T08:43:46.768Z,23.43
2022-11-29T08:46:18.587Z,23.23
2022-11-29T08:48:47.678Z,21.80
2022-11-29T08:51:16.253Z,25.00
2022-11-29T08:53:46.555Z,23.97
2022-11-29T08:59:04.688Z,23.80
2022-11-29T09:01:33.317Z,23.87
2022-11-29T09:04:03.046Z,24.27
2022-11-29T09:06:34.421Z,23.53
2022-11-29T09:09:04.709Z,22.73
2022-11-29T09:11:33.675Z,23.97
2022-11-29T09:14:03.657Z,23.13
2022-11-29T09:16:35.431Z,24.20
2022-11-29T09:19:04.272Z,23.30
2022-11-29T09:21:34.309Z,24.63
2022-11-29T09:24:06.281Z,27.60
2022-11-29T09:26:35.576Z,26.00
2022-11-29T09:29:05.339Z,25.80
2022-11-29T09:31:33.920Z,26.57
2022-11-29T09:34:02.529Z,26.10
2022-11-29T09:36:32.100Z,27.80
2022-11-29T09:39:04.037Z,27.40
2022-11-29T09:41:46.908Z,25.63
2022-11-29T09:44:19.864Z,24.00
2022-11-29T09:46:58.611Z,23.97
2022-11-29T09:49:54.385Z,23.50
2022-11-29T09:52:28.713Z,24.33
2022-11-29T09:55:03.323Z,24.67
2022-11-29T09:57:31.873Z,24.40
2022-11-29T10:00:02.845Z,22.63
2022-11-29T10:02:34.464Z,22.50
2022-11-29T10:05:04.411Z,23.30
2022-11-29T10:07:35.412Z,24.03
2022-11-29T10:10:08.432Z,23.03
2022-11-29T10:12:39.044Z,23.90
2022-11-29T10:15:13.804Z,24.37
2022-11-29T10:17:43.015Z,23.27
2022-11-29T10:20:16.004Z,24.87
2022-11-29T10:22:49.282Z,23.87
2022-11-29T10:25:23.676Z,24.40
2022-11-29T10:27:52.254Z,24.20
2022-11-29T10:30:21.113Z,24.63
2022-11-29T10:32:52.164Z,25.80
2022-11-29T10:35:21.206Z,24.30
2022-11-29T10:38:22.284Z,24.17
2022-11-29T10:40:39.748Z,24.53
2022-11-29T10:43:09.048Z,22.63
2022-11-29T10:45:39.944Z,23.97
2022-11-29T10:48:10.600Z,23.73
2022-11-29T10:50:39.429Z,24.10
2022-11-29T10:53:12.391Z,25.53
2022-11-29T10:55:43.263Z,26.17
2022-11-29T10:58:23.285Z,24.67
2022-11-29T11:00:56.713Z,22.87
2022-11-29T11:03:32.766Z,23.97
2022-11-29T11:06:07.684Z,24.97
2022-11-29T11:08:36.346Z,26.83
2022-11-29T11:11:07.735Z,40.43
2022-11-29T11:13:36.480Z,42.03
2022-11-29T11:16:20.434Z,29.73
2022-11-29T11:18:49.298Z,24.60
2022-11-29T11:21:21.011Z,24.23
2022-11-29T11:23:56.737Z,23.97
2022-11-29T11:26:26.733Z,26.13
2022-11-29T11:28:57.742Z,24.33
2022-11-29T11:31:31.005Z,22.93
2022-11-29T11:34:16.449Z,23.87
2022-11-29T11:36:47.348Z,22.50
2022-11-29T11:39:22.012Z,32.70
2022-11-29T11:42:10.009Z,27.40
2022-11-29T11:44:48.434Z,32.80
2022-11-29T11:47:19.465Z,32.43
2022-11-29T11:49:49.948Z,25.43
2022-11-29T11:52:21.830Z,26.33
2022-11-29T11:54:55.745Z,23.67
2022-11-29T11:57:26.161Z,25.53
2022-11-29T11:59:55.855Z,25.77
2022-11-29T12:02:28.814Z,25.67
2022-11-29T12:05:00.573Z,24.30
2022-11-29T12:08:05.702Z,24.97
2022-11-29T12:10:21.534Z,23.20
2022-11-29T12:12:53.286Z,25.50
2022-11-29T12:15:23.149Z,24.77
2022-11-29T12:17:52.754Z,23.40
2022-11-29T12:20:23.767Z,25.00
2022-11-29T12:23:02.736Z,25.40
2022-11-29T12:25:33.000Z,24.60
2022-11-29T12:28:04.991Z,25.30
2022-11-29T12:30:33.808Z,25.47
2022-11-29T12:33:09.097Z,24.10
2022-11-29T12:35:57.466Z,24.53
2022-11-29T12:38:45.058Z,24.87
2022-11-29T12:41:22.282Z,25.73
2022-11-29T12:43:58.174Z,26.47
2022-11-29T12:46:27.575Z,24.30
2022-11-29T12:49:00.565Z,24.17
2022-11-29T12:51:32.281Z,26.07
2022-11-29T12:54:11.487Z,25.20
2022-11-29T12:56:42.447Z,27.70
2022-11-29T12:59:20.542Z,28.33
2022-11-29T13:02:03.861Z,25.60
2022-11-29T13:04:38.583Z,25.37
2022-11-29T13:07:09.853Z,25.73
2022-11-29T13:10:03.637Z,24.30
2022-11-29T13:12:38.193Z,25.60
2022-11-29T13:15:11.764Z,24.90
2022-11-29T13:17:41.276Z,24.07
2022-11-29T13:20:21.913Z,24.60
2022-11-29T13:22:55.057Z,24.30
2022-11-29T13:25:25.593Z,25.73
2022-11-29T13:27:58.344Z,24.37
2022-11-29T13:30:29.542Z,25.83
2022-11-29T13:33:02.905Z,23.50
2022-11-29T13:35:33.771Z,24.57
2022-11-29T13:38:04.495Z,27.63
2022-11-29T13:40:37.907Z,24.33
2022-11-29T13:43:13.045Z,25.30
2022-11-29T13:45:45.522Z,25.17
2022-11-29T13:48:33.895Z,25.67
2022-11-29T13:51:26.601Z,24.33
2022-11-29T13:53:55.631Z,23.90
2022-11-29T13:56:29.708Z,24.53
2022-11-29T13:58:58.986Z,26.37
2022-11-29T14:01:29.110Z,26.47
2022-11-29T14:04:06.444Z,26.73
2022-11-29T14:06:36.574Z,25.23
2022-11-29T14:09:29.351Z,25.30
2022-11-29T14:12:03.707Z,25.30
2022-11-29T14:14:39.176Z,25.93
2022-11-29T14:17:47.366Z,27.23
2022-11-29T14:20:52.538Z,24.30
2022-11-29T14:23:38.140Z,24.90
2022-11-29T14:26:28.591Z,23.93
2022-11-29T14:29:00.659Z,25.37
2022-11-29T14:31:50.535Z,25.13
2022-11-29T14:34:32.193Z,25.20
2022-11-29T14:37:03.969Z,24.53
2022-11-29T14:39:35.167Z,25.17
2022-11-29T14:42:07.786Z,25.77
2022-11-29T14:44:39.953Z,25.83
2022-11-29T14:47:18.408Z,26.70
2022-11-29T14:49:50.300Z,24.53
2022-11-29T14:52:21.556Z,25.80
2022-11-29T14:54:58.410Z,24.47
2022-11-29T14:58:13.010Z,28.10
2022-11-29T15:00:53.957Z,30.23
2022-11-29T15:03:25.826Z,30.27
2022-11-29T15:06:02.166Z,41.50
2022-11-29T15:08:33.658Z,31.60
2022-11-29T15:11:04.242Z,28.33
2022-11-29T15:13:36.419Z,24.87
2022-11-29T15:16:15.288Z,26.27
2022-11-29T15:19:14.722Z,25.23
2022-11-29T15:21:48.106Z,25.70
2022-11-29T15:24:17.430Z,28.10
2022-11-29T15:26:57.176Z,29.77
2022-11-29T15:29:25.733Z,28.43
2022-11-29T15:31:56.143Z,26.67
2022-11-29T15:34:30.892Z,27.13
2022-11-29T15:37:00.933Z,28.20
2022-11-29T15:39:31.267Z,27.03
2022-11-29T15:42:03.582Z,26.80
2022-11-29T15:44:33.804Z,25.93
2022-11-29T15:47:20.387Z,24.73
2022-11-29T15:49:48.930Z,25.50
2022-11-29T15:52:24.863Z,29.27
2022-11-29T15:54:54.626Z,26.67
2022-11-29T15:57:25.828Z,27.20
2022-11-29T15:59:55.295Z,26.83
2022-11-29T16:02:25.396Z,28.23
2022-11-29T16:04:54.748Z,28.33
2022-11-29T16:07:25.047Z,26.70
2022-11-29T16:09:54.991Z,28.00
2022-11-29T16:12:25.230Z,29.17
2022-11-29T16:14:56.381Z,26.43
2022-11-29T16:17:26.050Z,27.00
2022-11-29T16:20:05.507Z,27.67
2022-11-29T16:22:35.447Z,26.87
2022-11-29T16:25:07.369Z,26.77
2022-11-29T16:27:36.181Z,26.50
2022-11-29T16:30:05.077Z,29.73
2022-11-29T16:32:34.810Z,28.93
2022-11-29T16:35:07.170Z,28.13
2022-11-29T16:37:40.130Z,30.07
2022-11-29T16:40:17.738Z,27.60
2022-11-29T16:42:46.255Z,27.37
2022-11-29T16:45:41.068Z,27.47
2022-11-29T16:48:29.915Z,29.80
2022-11-29T16:51:18.194Z,29.10
2022-11-29T16:53:49.740Z,27.40
2022-11-29T16:56:22.284Z,27.93
2022-11-29T16:59:25.481Z,28.47
2022-11-29T17:01:41.591Z,27.33
2022-11-29T17:04:12.421Z,27.67
2022-11-29T17:06:52.825Z,28.27
2022-11-29T17:09:27.591Z,30.40
2022-11-29T17:11:56.540Z,30.90
2022-11-29T17:14:25.138Z,31.90
2022-11-29T17:16:53.739Z,28.43
2022-11-29T17:19:23.771Z,30.77
2022-11-29T17:21:52.640Z,30.77
2022-11-29T17:24:21.927Z,29.43
2022-11-29T17:26:51.893Z,27.47
2022-11-29T17:29:22.767Z,27.43
2022-11-29T17:31:53.154Z,28.87
2022-11-29T17:34:21.940Z,26.90
2022-11-29T17:36:50.922Z,29.17
2022-11-29T17:39:22.608Z,28.97
2022-11-29T17:41:52.518Z,28.23
2022-11-29T17:44:21.069Z,27.03
2022-11-29T17:46:49.638Z,29.00
2022-11-29T17:49:18.870Z,28.87
2022-11-29T17:51:52.827Z,27.63
2022-11-29T17:54:22.212Z,29.27
2022-11-29T17:56:52.333Z,29.20
2022-11-29T17:59:22.644Z,33.70
2022-11-29T18:01:51.191Z,30.90
2022-11-29T18:04:19.870Z,45.83
2022-11-29T18:06:50.243Z,30.60
2022-11-29T18:09:19.499Z,32.10
2022-11-29T18:11:49.940Z,31.93
2022-11-29T18:14:21.211Z,31.80
2022-11-29T18:16:49.988Z,33.50
2022-11-29T18:19:20.320Z,30.43
2022-11-29T18:21:49.024Z,29.87
2022-11-29T18:24:17.701Z,30.30
2022-11-29T18:26:46.260Z,28.47
2022-11-29T18:29:16.704Z,30.67
2022-11-29T18:31:47.060Z,28.30
2022-11-29T18:34:15.996Z,53.00
2022-11-29T18:36:46.787Z,29.40
2022-11-29T18:39:16.006Z,31.90
2022-11-29T18:41:45.257Z,30.47
2022-11-29T18:44:18.691Z,29.80
2022-11-29T18:46:48.758Z,30.00
2022-11-29T18:49:17.924Z,30.63
2022-11-29T18:51:48.919Z,29.47
2022-11-29T18:54:18.362Z,29.20
2022-11-29T18:56:47.058Z,28.73
2022-11-29T18:59:16.913Z,29.80
2022-11-29T19:01:48.407Z,29.73
2022-11-29T19:04:18.106Z,30.87
2022-11-29T19:06:48.596Z,29.53
2022-11-29T19:09:18.094Z,30.47
2022-11-29T19:11:46.648Z,30.23
2022-11-29T19:14:15.198Z,31.57
2022-11-29T19:16:44.785Z,39.80
2022-11-29T19:19:14.795Z,38.40
2022-11-29T19:21:43.549Z,31.17
2022-11-29T19:24:15.018Z,31.37
2022-11-29T19:26:44.792Z,31.57
2022-11-29T19:29:14.033Z,31.90
2022-11-29T19:31:42.801Z,33.83
2022-11-29T19:34:12.860Z,36.43
2022-11-29T19:36:43.371Z,32.50
2022-11-29T19:39:13.001Z,30.90
2022-11-29T19:41:42.048Z,30.43
2022-11-29T19:44:10.767Z,33.60
2022-11-29T19:46:43.959Z,31.87
2022-11-29T19:49:13.982Z,29.70
2022-11-29T19:51:42.538Z,32.03
2022-11-29T19:54:11.931Z,30.97
2022-11-29T19:56:40.563Z,33.77
2022-11-29T19:59:09.277Z,31.83
2022-11-29T20:01:42.774Z,31.10
2022-11-29T20:04:13.847Z,31.63
2022-11-29T20:06:44.620Z,32.20
2022-11-29T20:09:13.406Z,31.83
2022-11-29T20:11:42.308Z,31.40
2022-11-29T20:14:12.892Z,31.40
2022-11-29T20:16:43.593Z,32.13
2022-11-29T20:19:15.050Z,31.73
2022-11-29T20:21:44.865Z,32.17
2022-11-29T20:24:15.832Z,32.80
2022-11-29T20:26:45.758Z,30.40
2022-11-29T20:29:14.377Z,30.87
2022-11-29T20:31:49.595Z,31.77
2022-11-29T20:34:20.756Z,34.63
2022-11-29T20:37:00.668Z,32.47
2022-11-29T20:39:33.056Z,30.50
2022-11-29T20:42:26.661Z,32.07
2022-11-29T20:44:55.980Z,34.07
2022-11-29T20:47:25.745Z,32.30
2022-11-29T20:49:57.130Z,31.87
2022-11-29T20:52:34.541Z,33.63
2022-11-29T20:55:03.362Z,32.80
2022-11-29T20:57:33.694Z,32.90
2022-11-29T21:00:02.434Z,33.17
2022-11-29T21:02:30.967Z,35.60
2022-11-29T21:05:02.863Z,33.50
2022-11-29T21:07:31.551Z,32.27
2022-11-29T21:10:02.234Z,32.97
2022-11-29T21:12:33.769Z,33.47
2022-11-29T21:15:03.173Z,34.63
2022-11-29T21:17:33.904Z,31.50
2022-11-29T21:20:04.840Z,33.77
2022-11-29T21:22:38.279Z,34.50
2022-11-29T21:25:10.884Z,34.33
2022-11-29T21:27:41.862Z,34.80
2022-11-29T21:30:18.877Z,36.97
2022-11-29T21:32:50.040Z,36.47
2022-11-29T21:35:20.182Z,35.30
2022-11-29T21:37:48.918Z,32.90
2022-11-29T21:40:17.694Z,31.70
2022-11-29T21:42:46.432Z,33.80
2022-11-29T21:45:16.092Z,33.13
2022-11-29T21:47:45.031Z,34.30
2022-11-29T21:50:16.346Z,36.17
2022-11-29T21:52:46.222Z,36.60
2022-11-29T21:55:14.839Z,35.00
2022-11-29T21:57:43.506Z,33.63
2022-11-29T22:00:12.962Z,36.27
2022-11-29T22:02:41.757Z,34.93
2022-11-29T22:05:12.272Z,32.93
2022-11-29T22:07:40.877Z,32.90
2022-11-29T22:10:13.663Z,33.30
2022-11-29T22:12:51.360Z,34.00
2022-11-29T22:15:24.778Z,32.30
2022-11-29T22:17:54.083Z,35.20
2022-11-29T22:20:22.762Z,31.40
2022-11-29T22:22:55.746Z,34.57
2022-11-29T22:25:28.420Z,33.17
2022-11-29T22:27:57.065Z,33.53
2022-11-29T22:30:25.663Z,34.03
2022-11-29T22:32:56.841Z,32.60
2022-11-29T22:35:25.471Z,32.90
2022-11-29T22:37:54.150Z,34.23
2022-11-29T22:40:22.739Z,33.17
2022-11-29T22:42:52.832Z,32.97
2022-11-29T22:45:21.670Z,37.70
2022-11-29T22:47:50.209Z,36.63
2022-11-29T22:50:19.940Z,37.30
2022-11-29T22:52:48.466Z,38.00
2022-11-29T22:55:17.338Z,37.50
2022-11-29T22:57:45.917Z,34.73
2022-11-29T23:00:16.535Z,34.07
2022-11-29T23:02:46.976Z,34.00
2022-11-29T23:05:15.598Z,36.47
2022-11-29T23:07:46.711Z,34.40
2022-11-29T23:10:15.415Z,53.47
2022-11-29T23:12:47.982Z,37.63
2022-11-29T23:15:17.999Z,35.37
2022-11-29T23:17:46.607Z,34.93
2022-11-29T23:20:15.642Z,36.07
2022-11-29T23:22:44.501Z,35.23
2022-11-29T23:25:13.055Z,35.73
2022-11-29T23:27:41.577Z,34.17
2022-11-29T23:30:11.023Z,34.80
2022-11-29T23:32:42.479Z,36.07
2022-11-29T23:35:12.667Z,37.60
2022-11-29T23:37:41.217Z,39.03
2022-11-29T23:40:11.098Z,37.73
2022-11-29T23:42:42.394Z,37.43
2022-11-29T23:45:13.647Z,36.73
2022-11-29T23:47:43.664Z,37.07
2022-11-29T23:50:12.736Z,36.10
2022-11-29T23:52:41.306Z,35.23
2022-11-29T23:55:11.581Z,39.93
2022-11-29T23:57:40.101Z,36.13
